createdAt,value
2019-02-06T00:00:57.551Z,3.60
2019-02-06T00:03:26.955Z,3.60
2019-02-06T00:05:56.342Z,3.60
2019-02-06T00:08:25.631Z,3.50
2019-02-06T00:10:54.991Z,3.50
2019-02-06T00:13:24.367Z,3.50
2019-02-06T00:15:54.095Z,3.50
2019-02-06T00:18:23.547Z,3.50
2019-02-06T00:20:52.897Z,3.50
2019-02-06T00:23:22.269Z,3.50
2019-02-06T00:25:51.642Z,3.50
2019-02-06T00:28:20.995Z,3.50
2019-02-06T00:30:50.766Z,3.50
2019-02-06T00:33:20.142Z,3.50
2019-02-06T00:35:49.482Z,3.50
2019-02-06T00:38:18.858Z,3.50
2019-02-06T00:40:48.148Z,3.50
2019-02-06T00:43:17.567Z,3.60
2019-02-06T00:45:47.362Z,3.60
2019-02-06T00:48:16.709Z,3.50
2019-02-06T00:50:46.085Z,3.50
2019-02-06T00:53:15.431Z,3.50
2019-02-06T00:55:44.727Z,3.50
2019-02-06T00:58:14.075Z,3.50
2019-02-06T01:00:43.720Z,3.50
2019-02-06T01:03:13.080Z,3.40
2019-02-06T01:05:42.362Z,3.40
2019-02-06T01:08:12.147Z,3.40
2019-02-06T01:10:41.482Z,3.40
2019-02-06T01:13:10.774Z,3.40
2019-02-06T01:15:40.490Z,3.40
2019-02-06T01:18:09.852Z,3.40
2019-02-06T01:20:39.222Z,3.50
2019-02-06T01:23:08.576Z,3.50
2019-02-06T01:25:37.924Z,3.40
2019-02-06T01:28:07.317Z,3.40
2019-02-06T01:30:50.806Z,3.40
2019-02-06T01:33:20.098Z,3.40
2019-02-06T01:35:50.320Z,3.40
2019-02-06T01:38:19.905Z,3.40
2019-02-06T01:40:49.270Z,3.40
2019-02-06T01:43:19.037Z,3.30
2019-02-06T01:45:48.391Z,3.30
2019-02-06T01:48:17.761Z,3.30
2019-02-06T01:50:47.107Z,3.30
2019-02-06T01:53:16.436Z,3.30
2019-02-06T01:55:45.801Z,3.30
2019-02-06T01:58:15.195Z,3.30
2019-02-06T02:00:44.578Z,3.30
2019-02-06T02:03:14.065Z,3.20
2019-02-06T02:05:43.420Z,3.20
2019-02-06T02:08:12.722Z,3.20
2019-02-06T02:10:42.182Z,3.20
2019-02-06T02:13:11.572Z,3.20
2019-02-06T02:15:41.018Z,3.20
2019-02-06T02:18:10.428Z,3.20
2019-02-06T02:20:39.793Z,3.20
2019-02-06T02:23:09.129Z,3.20
2019-02-06T02:25:38.503Z,3.20
2019-02-06T02:28:07.847Z,3.20
2019-02-06T02:30:50.025Z,3.10
2019-02-06T02:33:19.364Z,3.20
2019-02-06T02:35:48.696Z,3.10
2019-02-06T02:38:18.068Z,3.10
2019-02-06T02:40:47.414Z,3.10
2019-02-06T02:43:16.773Z,3.10
2019-02-06T02:45:46.119Z,3.10
2019-02-06T02:48:15.460Z,3.10
2019-02-06T02:50:44.835Z,3.20
2019-02-06T02:53:14.121Z,3.20
2019-02-06T02:55:43.472Z,3.20
2019-02-06T02:58:12.855Z,3.20
2019-02-06T03:01:01.154Z,3.20
2019-02-06T03:03:38.732Z,3.20
2019-02-06T03:06:08.618Z,3.20
2019-02-06T03:08:37.977Z,3.20
2019-02-06T03:11:07.340Z,3.20
2019-02-06T03:13:36.711Z,3.20
2019-02-06T03:16:06.062Z,3.20
2019-02-06T03:18:35.398Z,3.20
2019-02-06T03:21:05.095Z,3.20
2019-02-06T03:23:34.433Z,3.20
2019-02-06T03:26:03.728Z,3.20
2019-02-06T03:28:33.096Z,3.20
2019-02-06T03:31:02.391Z,3.20
2019-02-06T03:33:31.769Z,3.20
2019-02-06T03:36:01.322Z,3.20
2019-02-06T03:38:30.610Z,3.30
2019-02-06T03:40:59.968Z,3.30
2019-02-06T03:43:29.297Z,3.30
2019-02-06T03:45:58.614Z,3.30
2019-02-06T03:48:27.886Z,3.40
2019-02-06T03:50:57.364Z,3.40
2019-02-06T03:53:26.729Z,3.40
2019-02-06T03:55:56.010Z,3.50
2019-02-06T03:58:25.362Z,3.40
2019-02-06T04:00:54.749Z,3.40
2019-02-06T04:03:24.117Z,3.50
2019-02-06T04:05:53.434Z,3.50
2019-02-06T04:08:23.285Z,3.50
2019-02-06T04:10:52.553Z,3.50
2019-02-06T04:13:21.913Z,3.50
2019-02-06T04:15:51.261Z,3.50
2019-02-06T04:18:20.546Z,3.50
2019-02-06T04:20:49.934Z,3.50
2019-02-06T04:23:19.584Z,3.50
2019-02-06T04:25:48.943Z,3.60
2019-02-06T04:28:18.618Z,3.60
2019-02-06T04:30:47.970Z,3.60
2019-02-06T04:33:17.323Z,3.70
2019-02-06T04:35:46.709Z,3.70
2019-02-06T04:38:16.347Z,3.70
2019-02-06T04:40:45.716Z,3.70
2019-02-06T04:43:15.052Z,3.70
2019-02-06T04:45:44.425Z,3.70
2019-02-06T04:48:13.705Z,3.70
2019-02-06T04:50:43.082Z,3.70
2019-02-06T04:53:12.734Z,3.60
2019-02-06T04:55:42.082Z,3.70
2019-02-06T04:58:11.445Z,3.70
2019-02-06T05:00:40.761Z,3.60
2019-02-06T05:03:10.038Z,3.70
2019-02-06T05:05:39.416Z,3.60
2019-02-06T05:08:09.478Z,3.70
2019-02-06T05:10:38.778Z,3.70
2019-02-06T05:13:08.057Z,3.60
2019-02-06T05:15:37.416Z,3.60
2019-02-06T05:18:06.718Z,3.60
2019-02-06T05:20:38.004Z,3.60
2019-02-06T05:23:08.574Z,3.50
2019-02-06T05:25:37.885Z,3.50
2019-02-06T05:28:07.650Z,3.50
2019-02-06T05:30:37.030Z,3.40
2019-02-06T05:33:06.379Z,3.40
2019-02-06T05:35:35.641Z,3.40
2019-02-06T05:38:05.706Z,3.40
2019-02-06T05:40:35.033Z,3.40
2019-02-06T05:43:04.772Z,3.30
2019-02-06T05:45:34.122Z,3.30
2019-02-06T05:48:03.486Z,3.30
2019-02-06T05:50:32.826Z,3.30
2019-02-06T05:53:02.194Z,3.30
2019-02-06T05:55:31.652Z,3.20
2019-02-06T05:58:00.930Z,3.20
2019-02-06T06:00:37.393Z,3.20
2019-02-06T06:03:06.756Z,3.20
2019-02-06T06:05:36.134Z,3.20
2019-02-06T06:08:05.498Z,3.20
2019-02-06T06:10:34.810Z,3.20
2019-02-06T06:13:04.163Z,3.20
2019-02-06T06:15:33.503Z,3.30
2019-02-06T06:18:02.875Z,3.30
2019-02-06T06:20:32.369Z,3.30
2019-02-06T06:23:01.686Z,3.30
2019-02-06T06:25:31.268Z,3.30
2019-02-06T06:28:00.637Z,3.30
2019-02-06T06:30:30.013Z,3.30
2019-02-06T06:32:59.419Z,3.30
2019-02-06T06:35:28.787Z,3.30
2019-02-06T06:38:02.590Z,3.30
2019-02-06T06:40:29.208Z,3.30
2019-02-06T06:42:58.559Z,3.30
2019-02-06T06:45:27.944Z,3.30
2019-02-06T06:47:57.238Z,3.30
2019-02-06T06:50:26.613Z,3.30
2019-02-06T06:52:55.914Z,3.40
2019-02-06T06:55:25.601Z,3.30
2019-02-06T06:57:54.957Z,3.30
2019-02-06T07:00:26.265Z,3.30
2019-02-06T07:02:55.801Z,3.30
2019-02-06T07:05:25.162Z,3.30
2019-02-06T07:07:54.876Z,3.40
2019-02-06T07:10:24.668Z,3.40
2019-02-06T07:12:54.017Z,3.40
2019-02-06T07:15:28.856Z,3.40
2019-02-06T07:17:58.361Z,3.50
2019-02-06T07:20:27.829Z,3.50
2019-02-06T07:22:57.153Z,3.50
2019-02-06T07:25:26.525Z,3.60
2019-02-06T07:27:55.887Z,3.60
2019-02-06T07:30:28.044Z,3.60
2019-02-06T07:32:57.628Z,3.60
2019-02-06T07:35:26.997Z,3.70
2019-02-06T07:37:56.742Z,3.70
2019-02-06T07:40:26.254Z,3.70
2019-02-06T07:42:55.580Z,3.70
2019-02-06T07:45:24.936Z,3.70
2019-02-06T07:47:54.297Z,3.80
2019-02-06T07:50:25.891Z,3.80
2019-02-06T07:52:55.547Z,3.90
2019-02-06T07:55:24.878Z,3.90
2019-02-06T07:57:54.348Z,3.90
2019-02-06T08:00:23.751Z,3.90
2019-02-06T08:02:53.989Z,4.00
2019-02-06T08:05:23.369Z,4.00
2019-02-06T08:07:52.795Z,4.10
2019-02-06T08:10:41.131Z,4.10
2019-02-06T08:13:10.476Z,4.10
2019-02-06T08:15:39.816Z,4.20
2019-02-06T08:18:09.130Z,4.20
2019-02-06T08:20:38.969Z,4.20
2019-02-06T08:23:08.352Z,4.20
2019-02-06T08:25:37.700Z,4.30
2019-02-06T08:28:07.061Z,4.30
2019-02-06T08:30:38.622Z,4.30
2019-02-06T08:33:07.913Z,4.40
2019-02-06T08:35:37.218Z,4.40
2019-02-06T08:38:06.498Z,4.40
2019-02-06T08:40:35.794Z,4.40
2019-02-06T08:43:05.129Z,4.50
2019-02-06T08:45:34.474Z,4.50
2019-02-06T08:48:03.853Z,4.50
2019-02-06T08:50:33.423Z,4.50
2019-02-06T08:53:02.811Z,4.50
2019-02-06T08:55:32.351Z,4.60
2019-02-06T08:58:02.156Z,4.60
2019-02-06T09:00:33.562Z,4.60
2019-02-06T09:03:03.283Z,4.70
2019-02-06T09:05:32.672Z,4.70
2019-02-06T09:08:02.007Z,4.70
2019-02-06T09:10:31.443Z,4.70
2019-02-06T09:13:00.890Z,4.70
2019-02-06T09:15:30.313Z,4.80
2019-02-06T09:17:59.688Z,4.90
2019-02-06T09:20:29.129Z,4.90
2019-02-06T09:22:59.756Z,5.00
2019-02-06T09:25:29.649Z,5.00
2019-02-06T09:27:59.623Z,5.10
2019-02-06T09:30:30.589Z,5.10
2019-02-06T09:33:00.401Z,5.10
2019-02-06T09:35:30.205Z,5.10
2019-02-06T09:37:59.584Z,5.10
2019-02-06T09:40:30.056Z,5.10
2019-02-06T09:42:59.557Z,5.20
2019-02-06T09:45:29.419Z,5.20
2019-02-06T09:47:58.805Z,5.20
2019-02-06T09:50:30.595Z,5.20
2019-02-06T09:52:59.933Z,5.20
2019-02-06T09:55:29.695Z,5.20
2019-02-06T09:57:59.422Z,5.20
2019-02-06T10:00:30.793Z,5.10
2019-02-06T10:03:00.299Z,5.10
2019-02-06T10:05:30.346Z,5.10
2019-02-06T10:07:59.725Z,5.20
2019-02-06T10:10:29.467Z,5.20
2019-02-06T10:12:58.855Z,5.20
2019-02-06T10:15:30.820Z,5.10
2019-02-06T10:18:01.451Z,5.10
2019-02-06T10:20:36.441Z,5.10
2019-02-06T10:23:06.074Z,5.10
2019-02-06T10:25:35.670Z,5.10
2019-02-06T10:28:04.987Z,5.20
2019-02-06T10:30:36.374Z,5.20
2019-02-06T10:33:05.832Z,5.20
2019-02-06T10:35:35.301Z,5.30
2019-02-06T10:38:05.373Z,5.30
2019-02-06T10:40:34.796Z,5.40
2019-02-06T10:43:04.311Z,5.40
2019-02-06T10:45:33.859Z,5.50
2019-02-06T10:48:03.247Z,5.50
2019-02-06T10:50:34.717Z,5.60
2019-02-06T10:53:04.201Z,5.60
2019-02-06T10:55:33.887Z,5.70
2019-02-06T10:58:03.262Z,5.70
2019-02-06T11:00:35.471Z,5.70
2019-02-06T11:03:05.523Z,5.80
2019-02-06T11:05:35.198Z,5.90
2019-02-06T11:08:04.746Z,5.90
2019-02-06T11:10:37.111Z,5.90
2019-02-06T11:13:07.790Z,5.90
2019-02-06T11:15:37.398Z,6.00
2019-02-06T11:18:07.280Z,6.00
2019-02-06T11:20:37.352Z,6.00
2019-02-06T11:23:07.468Z,6.10
2019-02-06T11:25:36.963Z,6.20
2019-02-06T11:28:07.288Z,6.20
2019-02-06T11:30:37.072Z,6.30
2019-02-06T11:33:07.160Z,6.30
2019-02-06T11:35:36.697Z,6.40
2019-02-06T11:38:07.016Z,6.50
2019-02-06T11:40:36.443Z,6.50
2019-02-06T11:43:06.533Z,6.50
2019-02-06T11:45:36.253Z,6.50
2019-02-06T11:48:06.287Z,6.60
2019-02-06T11:50:40.718Z,6.60
2019-02-06T11:53:29.150Z,6.70
2019-02-06T11:55:58.688Z,6.70
2019-02-06T11:58:28.032Z,6.70
2019-02-06T12:01:15.163Z,6.70
2019-02-06T12:03:44.563Z,6.80
2019-02-06T12:06:14.054Z,6.80
2019-02-06T12:08:55.903Z,6.90
2019-02-06T12:11:25.302Z,6.90
2019-02-06T12:13:54.666Z,6.90
2019-02-06T12:16:24.092Z,7.00
2019-02-06T12:18:53.786Z,7.00
2019-02-06T12:21:23.169Z,7.00
2019-02-06T12:23:52.549Z,7.00
2019-02-06T12:26:21.865Z,7.00
2019-02-06T12:28:51.155Z,7.00
2019-02-06T12:31:20.525Z,7.00
2019-02-06T12:33:50.139Z,7.00
2019-02-06T12:36:19.621Z,7.00
2019-02-06T12:38:53.475Z,7.10
2019-02-06T12:41:19.995Z,7.10
2019-02-06T12:43:49.340Z,7.10
2019-02-06T12:46:18.744Z,7.20
2019-02-06T12:48:48.026Z,7.20
2019-02-06T12:51:17.314Z,7.20
2019-02-06T12:53:46.618Z,7.30
2019-02-06T12:56:16.211Z,7.30
2019-02-06T12:58:45.568Z,7.30
2019-02-06T13:01:14.949Z,7.20
2019-02-06T13:03:44.330Z,7.20
2019-02-06T13:06:13.597Z,7.30
2019-02-06T13:08:43.027Z,7.30
2019-02-06T13:11:12.480Z,7.30
2019-02-06T13:13:41.814Z,7.20
2019-02-06T13:16:11.239Z,7.30
2019-02-06T13:18:40.604Z,7.30
2019-02-06T13:21:09.961Z,7.30
2019-02-06T13:23:39.565Z,7.30
2019-02-06T13:26:08.918Z,7.40
2019-02-06T13:28:38.306Z,7.30
2019-02-06T13:31:07.722Z,7.40
2019-02-06T13:33:37.127Z,7.30
2019-02-06T13:36:09.945Z,7.30
2019-02-06T13:38:39.321Z,7.30
2019-02-06T13:41:08.643Z,7.30
2019-02-06T13:43:38.004Z,7.30
2019-02-06T13:46:07.739Z,7.30
2019-02-06T13:48:37.101Z,7.30
2019-02-06T13:51:16.302Z,7.30
2019-02-06T13:53:37.576Z,7.30
2019-02-06T13:56:06.963Z,7.30
2019-02-06T13:58:36.395Z,7.40
2019-02-06T14:01:06.284Z,7.40
2019-02-06T14:03:35.539Z,7.40
2019-02-06T14:06:05.265Z,7.40
2019-02-06T14:08:34.646Z,7.50
2019-02-06T14:11:04.008Z,7.40
2019-02-06T14:13:33.372Z,7.40
2019-02-06T14:16:02.753Z,7.40
2019-02-06T14:18:32.176Z,7.50
2019-02-06T14:21:01.462Z,7.50
2019-02-06T14:23:38.390Z,7.40
2019-02-06T14:26:22.773Z,7.50
2019-02-06T14:29:41.101Z,7.50
2019-02-06T14:32:54.729Z,7.50
2019-02-06T14:36:02.690Z,7.50
2019-02-06T14:38:57.751Z,7.60
2019-02-06T14:41:39.743Z,7.60
2019-02-06T14:44:21.071Z,7.60
2019-02-06T14:47:28.893Z,7.60
2019-02-06T14:50:53.888Z,7.60
2019-02-06T14:53:47.643Z,7.70
2019-02-06T14:56:49.755Z,7.70
2019-02-06T14:59:28.513Z,7.70
2019-02-06T15:02:36.127Z,7.80
2019-02-06T15:08:56.617Z,7.80
2019-02-06T15:12:17.199Z,7.80
2019-02-06T15:15:23.446Z,7.80
2019-02-06T15:18:17.074Z,7.80
2019-02-06T15:21:36.461Z,7.80
2019-02-06T15:24:30.287Z,7.80
2019-02-06T15:27:43.813Z,7.80
2019-02-06T15:30:39.575Z,7.80
2019-02-06T15:33:25.317Z,7.80
2019-02-06T15:36:24.146Z,7.80
2019-02-06T15:39:17.131Z,7.80
2019-02-06T15:41:56.072Z,7.90
2019-02-06T15:45:00.579Z,7.80
2019-02-06T15:48:05.031Z,7.80
2019-02-06T15:50:53.591Z,7.80
2019-02-06T15:53:54.610Z,7.80
2019-02-06T15:57:19.885Z,7.80
2019-02-06T16:00:33.217Z,7.80
2019-02-06T16:03:37.928Z,7.80
2019-02-06T16:06:38.603Z,7.70
2019-02-06T16:10:07.357Z,7.80
2019-02-06T16:13:10.445Z,7.80
2019-02-06T16:15:56.511Z,7.80
2019-02-06T16:19:03.133Z,7.80
2019-02-06T16:22:31.968Z,7.80
2019-02-06T16:25:12.516Z,7.90
2019-02-06T16:28:24.036Z,7.90
2019-02-06T16:31:26.559Z,7.90
2019-02-06T16:34:17.563Z,7.90
2019-02-06T16:37:16.223Z,8.00
2019-02-06T16:40:19.012Z,8.00
2019-02-06T16:43:31.410Z,8.00
2019-02-06T16:46:43.759Z,8.00
2019-02-06T16:49:49.182Z,8.00
2019-02-06T16:52:39.956Z,8.00
2019-02-06T16:55:33.341Z,8.00
2019-02-06T16:59:05.100Z,8.00
2019-02-06T17:02:06.241Z,8.00
2019-02-06T17:05:10.859Z,8.00
2019-02-06T17:08:12.541Z,8.00
2019-02-06T17:11:23.391Z,8.00
2019-02-06T17:14:26.175Z,8.00
2019-02-06T17:17:07.925Z,8.10
2019-02-06T17:20:03.818Z,8.10
2019-02-06T17:22:42.299Z,8.10
2019-02-06T17:25:59.319Z,8.10
2019-02-06T17:28:43.753Z,8.10
2019-02-06T17:31:55.686Z,8.10
2019-02-06T17:34:51.112Z,8.00
2019-02-06T17:38:09.434Z,8.00
2019-02-06T17:41:01.474Z,8.00
2019-02-06T17:44:15.029Z,8.00
2019-02-06T17:47:13.584Z,8.00
2019-02-06T17:49:56.987Z,8.00
2019-02-06T17:53:03.193Z,8.00
2019-02-06T17:55:32.570Z,8.00
2019-02-06T17:58:07.830Z,8.00
2019-02-06T18:01:00.476Z,8.00
2019-02-06T18:03:34.065Z,8.00
2019-02-06T18:06:03.512Z,8.00
2019-02-06T18:08:32.990Z,7.90
2019-02-06T18:11:02.420Z,7.90
2019-02-06T18:13:31.830Z,7.80
2019-02-06T18:16:01.236Z,7.80
2019-02-06T18:18:30.696Z,7.80
2019-02-06T18:21:00.142Z,7.80
2019-02-06T18:23:29.506Z,7.80
2019-02-06T18:25:58.943Z,7.80
2019-02-06T18:28:28.319Z,7.80
2019-02-06T18:30:57.718Z,7.80
2019-02-06T18:33:28.150Z,7.80
2019-02-06T18:35:57.562Z,7.80
2019-02-06T18:38:27.099Z,7.80
2019-02-06T18:40:56.531Z,7.80
2019-02-06T18:43:25.913Z,7.90
2019-02-06T18:45:55.293Z,7.80
2019-02-06T18:48:28.347Z,7.90
2019-02-06T18:50:58.475Z,7.90
2019-02-06T18:53:27.868Z,7.90
2019-02-06T18:55:57.431Z,7.90
2019-02-06T18:58:27.588Z,7.90
2019-02-06T19:01:02.871Z,7.80
2019-02-06T19:03:35.967Z,7.80
2019-02-06T19:06:05.705Z,7.70
2019-02-06T19:08:36.464Z,7.70
2019-02-06T19:11:06.179Z,7.70
2019-02-06T19:13:35.561Z,7.70
2019-02-06T19:16:05.157Z,7.70
2019-02-06T19:18:37.172Z,7.70
2019-02-06T19:21:05.701Z,7.70
2019-02-06T19:23:35.517Z,7.70
2019-02-06T19:26:05.057Z,7.70
2019-02-06T19:28:34.997Z,7.70
2019-02-06T19:31:04.360Z,7.70
2019-02-06T19:33:33.741Z,7.70
2019-02-06T19:36:03.119Z,7.70
2019-02-06T19:38:32.605Z,7.60
2019-02-06T19:41:02.357Z,7.60
2019-02-06T19:43:31.748Z,7.60
2019-02-06T19:46:01.169Z,7.60
2019-02-06T19:48:30.493Z,7.60
2019-02-06T19:50:59.812Z,7.60
2019-02-06T19:53:29.381Z,7.60
2019-02-06T19:55:58.890Z,7.60
2019-02-06T19:58:28.606Z,7.60
2019-02-06T20:00:58.039Z,7.70
2019-02-06T20:03:27.441Z,7.70
2019-02-06T20:05:56.855Z,7.70
2019-02-06T20:08:26.329Z,7.70
2019-02-06T20:10:55.817Z,7.70
2019-02-06T20:13:25.239Z,7.70
2019-02-06T20:15:55.343Z,7.70
2019-02-06T20:18:24.731Z,7.60
2019-02-06T20:20:54.133Z,7.60
2019-02-06T20:23:23.560Z,7.60
2019-02-06T20:25:52.906Z,7.60
2019-02-06T20:28:22.336Z,7.60
2019-02-06T20:30:52.154Z,7.60
2019-02-06T20:33:22.360Z,7.60
2019-02-06T20:35:51.762Z,7.60
2019-02-06T20:38:21.200Z,7.50
2019-02-06T20:40:50.607Z,7.50
2019-02-06T20:43:22.191Z,7.50
2019-02-06T20:45:51.012Z,7.50
2019-02-06T20:48:20.626Z,7.50
2019-02-06T20:50:51.604Z,7.50
2019-02-06T20:53:21.034Z,7.50
2019-02-06T20:55:51.936Z,7.50
2019-02-06T20:58:21.354Z,7.50
2019-02-06T21:00:50.707Z,7.50
2019-02-06T21:03:20.132Z,7.50
2019-02-06T21:05:52.760Z,7.50
2019-02-06T21:08:22.150Z,7.50
2019-02-06T21:10:51.781Z,7.50
2019-02-06T21:13:21.149Z,7.50
2019-02-06T21:15:50.566Z,7.50
2019-02-06T21:18:19.910Z,7.50
2019-02-06T21:20:51.797Z,7.40
2019-02-06T21:23:20.344Z,7.50
2019-02-06T21:25:49.718Z,7.50
2019-02-06T21:28:19.072Z,7.50
2019-02-06T21:30:48.474Z,7.50
2019-02-06T21:33:17.861Z,7.40
2019-02-06T21:35:47.325Z,7.50
2019-02-06T21:38:16.714Z,7.50
2019-02-06T21:40:46.100Z,7.50
2019-02-06T21:43:15.413Z,7.50
2019-02-06T21:45:44.873Z,7.40
2019-02-06T21:48:14.271Z,7.40
2019-02-06T21:50:43.671Z,7.40
2019-02-06T21:53:13.048Z,7.40
2019-02-06T21:55:42.359Z,7.40
2019-02-06T21:58:11.762Z,7.40
2019-02-06T22:00:42.256Z,7.40
2019-02-06T22:03:11.739Z,7.40
2019-02-06T22:05:41.138Z,7.40
2019-02-06T22:08:10.410Z,7.40
2019-02-06T22:10:39.776Z,7.40
2019-02-06T22:13:09.183Z,7.40
2019-02-06T22:15:38.559Z,7.40
2019-02-06T22:18:08.427Z,7.30
2019-02-06T22:20:37.817Z,7.30
2019-02-06T22:23:07.227Z,7.40
2019-02-06T22:25:36.524Z,7.30
2019-02-06T22:28:05.921Z,7.30
2019-02-06T22:30:35.284Z,7.30
2019-02-06T22:33:04.986Z,7.30
2019-02-06T22:35:34.389Z,7.30
2019-02-06T22:38:03.799Z,7.30
2019-02-06T22:40:33.211Z,7.30
2019-02-06T22:43:02.570Z,7.30
2019-02-06T22:45:31.953Z,7.30
2019-02-06T22:48:01.746Z,7.30
2019-02-06T22:50:31.216Z,7.30
2019-02-06T22:53:00.673Z,7.30
2019-02-06T22:55:30.138Z,7.30
2019-02-06T22:57:59.424Z,7.30
2019-02-06T23:01:00.336Z,7.30
2019-02-06T23:03:32.496Z,7.30
2019-02-06T23:06:01.845Z,7.30
2019-02-06T23:08:31.334Z,7.30
2019-02-06T23:11:01.133Z,7.30
2019-02-06T23:13:30.639Z,7.30
2019-02-06T23:16:00.095Z,7.30
2019-02-06T23:18:29.481Z,7.20
2019-02-06T23:20:58.884Z,7.20
2019-02-06T23:23:28.187Z,7.30
2019-02-06T23:25:57.874Z,7.20
2019-02-06T23:28:28.266Z,7.20
2019-02-06T23:30:57.646Z,7.20
2019-02-06T23:33:27.046Z,7.30
2019-02-06T23:35:56.430Z,7.20
2019-02-06T23:38:25.804Z,7.20
2019-02-06T23:40:55.207Z,7.20
2019-02-06T23:43:24.624Z,7.20
2019-02-06T23:45:53.943Z,7.20
2019-02-06T23:48:24.111Z,7.20
2019-02-06T23:50:53.500Z,7.20
2019-02-06T23:53:22.898Z,7.20
2019-02-06T23:55:52.239Z,7.10
2019-02-06T23:58:21.684Z,7.10
